sensor_id;sensor_type;location;lat;lon;timestamp;P1;durP1;ratioP1;P2;durP2;ratioP2
40537;SDS011;27925;41.874;12.526;2023-07-09T00:01:48;17.00;;;9.70;;
40537;SDS011;27925;41.874;12.526;2023-07-09T00:04:14;14.57;;;9.10;;
40537;SDS011;27925;41.874;12.526;2023-07-09T00:06:40;12.45;;;9.23;;
40537;SDS011;27925;41.874;12.526;2023-07-09T00:09:11;14.40;;;9.63;;
40537;SDS011;27925;41.874;12.526;2023-07-09T00:11:44;15.68;;;9.02;;
40537;SDS011;27925;41.874;12.526;2023-07-09T00:14:10;17.42;;;9.50;;
40537;SDS011;27925;41.874;12.526;2023-07-09T00:16:38;14.80;;;9.82;;
40537;SDS011;27925;41.874;12.526;2023-07-09T00:19:07;16.45;;;9.60;;
40537;SDS011;27925;41.874;12.526;2023-07-09T00:21:38;17.17;;;9.63;;
40537;SDS011;27925;41.874;12.526;2023-07-09T00:24:05;16.92;;;9.13;;
40537;SDS011;27925;41.874;12.526;2023-07-09T00:26:32;14.10;;;9.40;;
40537;SDS011;27925;41.874;12.526;2023-07-09T00:29:01;17.35;;;9.43;;
40537;SDS011;27925;41.874;12.526;2023-07-09T00:31:26;12.80;;;8.65;;
40537;SDS011;27925;41.874;12.526;2023-07-09T00:33:52;18.98;;;9.40;;
40537;SDS011;27925;41.874;12.526;2023-07-09T00:36:28;13.48;;;8.95;;
40537;SDS011;27925;41.874;12.526;2023-07-09T00:38:56;14.77;;;9.18;;
40537;SDS011;27925;41.874;12.526;2023-07-09T00:43:58;14.48;;;8.07;;
40537;SDS011;27925;41.874;12.526;2023-07-09T00:49:24;13.70;;;8.18;;
40537;SDS011;27925;41.874;12.526;2023-07-09T00:51:54;13.90;;;8.30;;
40537;SDS011;27925;41.874;12.526;2023-07-09T00:54:31;14.63;;;7.97;;
40537;SDS011;27925;41.874;12.526;2023-07-09T00:57:04;16.45;;;8.65;;
40537;SDS011;27925;41.874;12.526;2023-07-09T00:59:36;16.33;;;7.68;;
40537;SDS011;27925;41.874;12.526;2023-07-09T01:02:05;17.08;;;7.72;;
40537;SDS011;27925;41.874;12.526;2023-07-09T01:04:32;13.02;;;7.90;;
40537;SDS011;27925;41.874;12.526;2023-07-09T01:06:58;17.08;;;8.35;;
40537;SDS011;27925;41.874;12.526;2023-07-09T01:09:24;14.77;;;7.57;;
40537;SDS011;27925;41.874;12.526;2023-07-09T01:11:50;13.07;;;7.90;;
40537;SDS011;27925;41.874;12.526;2023-07-09T01:14:19;12.88;;;7.57;;
40537;SDS011;27925;41.874;12.526;2023-07-09T01:16:48;12.93;;;7.68;;
40537;SDS011;27925;41.874;12.526;2023-07-09T01:19:25;12.20;;;7.35;;
40537;SDS011;27925;41.874;12.526;2023-07-09T01:21:55;14.80;;;7.82;;
40537;SDS011;27925;41.874;12.526;2023-07-09T01:27:11;15.63;;;8.43;;
40537;SDS011;27925;41.874;12.526;2023-07-09T01:29:36;15.43;;;7.80;;
40537;SDS011;27925;41.874;12.526;2023-07-09T01:32:03;14.52;;;7.30;;
40537;SDS011;27925;41.874;12.526;2023-07-09T01:34:31;18.15;;;7.53;;
40537;SDS011;27925;41.874;12.526;2023-07-09T01:36:58;14.95;;;7.72;;
40537;SDS011;27925;41.874;12.526;2023-07-09T01:39:24;12.88;;;7.68;;
40537;SDS011;27925;41.874;12.526;2023-07-09T01:41:53;12.80;;;7.88;;
40537;SDS011;27925;41.874;12.526;2023-07-09T01:44:19;11.95;;;7.78;;
40537;SDS011;27925;41.874;12.526;2023-07-09T01:46:45;13.07;;;7.43;;
40537;SDS011;27925;41.874;12.526;2023-07-09T01:49:11;11.68;;;7.63;;
40537;SDS011;27925;41.874;12.526;2023-07-09T01:51:36;12.50;;;7.60;;
40537;SDS011;27925;41.874;12.526;2023-07-09T01:54:03;14.63;;;7.97;;
40537;SDS011;27925;41.874;12.526;2023-07-09T01:56:29;13.30;;;8.38;;
40537;SDS011;27925;41.874;12.526;2023-07-09T01:58:55;13.20;;;7.70;;
40537;SDS011;27925;41.874;12.526;2023-07-09T02:01:29;13.30;;;7.97;;
40537;SDS011;27925;41.874;12.526;2023-07-09T02:03:55;13.77;;;7.00;;
40537;SDS011;27925;41.874;12.526;2023-07-09T02:06:21;11.20;;;6.95;;
40537;SDS011;27925;41.874;12.526;2023-07-09T02:08:49;14.70;;;7.65;;
40537;SDS011;27925;41.874;12.526;2023-07-09T02:11:15;13.13;;;7.03;;
40537;SDS011;27925;41.874;12.526;2023-07-09T02:13:41;13.55;;;7.53;;
40537;SDS011;27925;41.874;12.526;2023-07-09T02:16:06;11.65;;;7.43;;
40537;SDS011;27925;41.874;12.526;2023-07-09T02:18:34;21.10;;;8.00;;
40537;SDS011;27925;41.874;12.526;2023-07-09T02:21:00;11.80;;;8.05;;
40537;SDS011;27925;41.874;12.526;2023-07-09T02:23:26;15.15;;;7.80;;
40537;SDS011;27925;41.874;12.526;2023-07-09T02:25:53;14.20;;;7.97;;
40537;SDS011;27925;41.874;12.526;2023-07-09T02:28:18;10.57;;;7.43;;
40537;SDS011;27925;41.874;12.526;2023-07-09T02:30:44;14.55;;;7.78;;
40537;SDS011;27925;41.874;12.526;2023-07-09T02:33:10;11.98;;;7.18;;
40537;SDS011;27925;41.874;12.526;2023-07-09T02:35:36;13.35;;;7.72;;
40537;SDS011;27925;41.874;12.526;2023-07-09T02:38:02;15.00;;;7.65;;
40537;SDS011;27925;41.874;12.526;2023-07-09T02:40:28;12.43;;;7.75;;
40537;SDS011;27925;41.874;12.526;2023-07-09T02:42:54;16.15;;;7.82;;
40537;SDS011;27925;41.874;12.526;2023-07-09T02:45:20;14.10;;;8.70;;
40537;SDS011;27925;41.874;12.526;2023-07-09T02:47:46;13.23;;;7.68;;
40537;SDS011;27925;41.874;12.526;2023-07-09T02:50:12;12.32;;;8.05;;
40537;SDS011;27925;41.874;12.526;2023-07-09T02:52:39;13.68;;;7.57;;
40537;SDS011;27925;41.874;12.526;2023-07-09T02:55:07;13.07;;;7.72;;
40537;SDS011;27925;41.874;12.526;2023-07-09T02:57:33;12.93;;;8.02;;
40537;SDS011;27925;41.874;12.526;2023-07-09T02:59:59;14.10;;;8.05;;
40537;SDS011;27925;41.874;12.526;2023-07-09T03:02:24;15.77;;;8.15;;
40537;SDS011;27925;41.874;12.526;2023-07-09T03:04:51;14.75;;;7.80;;
40537;SDS011;27925;41.874;12.526;2023-07-09T03:07:17;13.15;;;7.80;;
40537;SDS011;27925;41.874;12.526;2023-07-09T03:09:42;15.55;;;8.00;;
40537;SDS011;27925;41.874;12.526;2023-07-09T03:12:08;12.13;;;7.07;;
40537;SDS011;27925;41.874;12.526;2023-07-09T03:14:35;12.52;;;7.50;;
40537;SDS011;27925;41.874;12.526;2023-07-09T03:17:00;14.13;;;8.63;;
40537;SDS011;27925;41.874;12.526;2023-07-09T03:19:26;13.68;;;8.00;;
40537;SDS011;27925;41.874;12.526;2023-07-09T03:21:52;11.35;;;7.82;;
40537;SDS011;27925;41.874;12.526;2023-07-09T03:24:18;14.85;;;8.18;;
40537;SDS011;27925;41.874;12.526;2023-07-09T03:26:44;10.27;;;7.53;;
40537;SDS011;27925;41.874;12.526;2023-07-09T03:29:10;12.00;;;7.80;;
40537;SDS011;27925;41.874;12.526;2023-07-09T03:31:37;17.42;;;7.43;;
40537;SDS011;27925;41.874;12.526;2023-07-09T03:34:02;13.43;;;7.95;;
40537;SDS011;27925;41.874;12.526;2023-07-09T03:36:29;15.90;;;7.70;;
40537;SDS011;27925;41.874;12.526;2023-07-09T03:38:55;11.80;;;7.53;;
40537;SDS011;27925;41.874;12.526;2023-07-09T03:41:20;12.10;;;7.85;;
40537;SDS011;27925;41.874;12.526;2023-07-09T03:43:46;13.75;;;8.23;;
40537;SDS011;27925;41.874;12.526;2023-07-09T03:46:15;10.25;;;7.72;;
40537;SDS011;27925;41.874;12.526;2023-07-09T03:48:40;15.13;;;7.95;;
40537;SDS011;27925;41.874;12.526;2023-07-09T03:51:06;13.73;;;7.68;;
40537;SDS011;27925;41.874;12.526;2023-07-09T03:53:32;15.60;;;8.05;;
40537;SDS011;27925;41.874;12.526;2023-07-09T03:55:57;16.38;;;7.97;;
40537;SDS011;27925;41.874;12.526;2023-07-09T03:58:25;12.70;;;7.50;;
40537;SDS011;27925;41.874;12.526;2023-07-09T04:00:50;11.25;;;6.95;;
40537;SDS011;27925;41.874;12.526;2023-07-09T04:03:16;13.88;;;8.05;;
40537;SDS011;27925;41.874;12.526;2023-07-09T04:05:42;12.85;;;7.30;;
40537;SDS011;27925;41.874;12.526;2023-07-09T04:08:08;12.23;;;7.35;;
40537;SDS011;27925;41.874;12.526;2023-07-09T04:10:33;11.93;;;7.35;;
40537;SDS011;27925;41.874;12.526;2023-07-09T04:12:59;12.57;;;6.90;;
40537;SDS011;27925;41.874;12.526;2023-07-09T04:15:25;12.80;;;6.63;;
40537;SDS011;27925;41.874;12.526;2023-07-09T04:17:51;12.85;;;7.82;;
40537;SDS011;27925;41.874;12.526;2023-07-09T04:20:17;9.65;;;7.22;;
40537;SDS011;27925;41.874;12.526;2023-07-09T04:22:43;11.45;;;6.57;;
40537;SDS011;27925;41.874;12.526;2023-07-09T04:25:10;10.85;;;7.13;;
40537;SDS011;27925;41.874;12.526;2023-07-09T04:27:36;11.48;;;7.22;;
40537;SDS011;27925;41.874;12.526;2023-07-09T04:30:03;9.45;;;6.88;;
40537;SDS011;27925;41.874;12.526;2023-07-09T04:32:30;13.63;;;7.00;;
40537;SDS011;27925;41.874;12.526;2023-07-09T04:34:56;12.63;;;7.50;;
40537;SDS011;27925;41.874;12.526;2023-07-09T04:37:22;13.80;;;6.65;;
40537;SDS011;27925;41.874;12.526;2023-07-09T04:39:48;12.52;;;7.30;;
40537;SDS011;27925;41.874;12.526;2023-07-09T04:42:14;10.73;;;6.80;;
40537;SDS011;27925;41.874;12.526;2023-07-09T04:44:41;11.55;;;6.78;;
40537;SDS011;27925;41.874;12.526;2023-07-09T04:47:08;12.25;;;6.95;;
40537;SDS011;27925;41.874;12.526;2023-07-09T04:49:34;12.40;;;6.78;;
40537;SDS011;27925;41.874;12.526;2023-07-09T04:52:00;15.73;;;7.60;;
40537;SDS011;27925;41.874;12.526;2023-07-09T04:54:26;11.27;;;6.90;;
40537;SDS011;27925;41.874;12.526;2023-07-09T04:56:52;12.15;;;6.72;;
40537;SDS011;27925;41.874;12.526;2023-07-09T04:59:19;11.85;;;7.40;;
40537;SDS011;27925;41.874;12.526;2023-07-09T05:01:45;14.30;;;7.10;;
40537;SDS011;27925;41.874;12.526;2023-07-09T05:04:11;11.32;;;6.53;;
40537;SDS011;27925;41.874;12.526;2023-07-09T05:06:37;11.68;;;6.38;;
40537;SDS011;27925;41.874;12.526;2023-07-09T05:09:03;14.13;;;6.30;;
40537;SDS011;27925;41.874;12.526;2023-07-09T05:11:30;9.27;;;6.47;;
40537;SDS011;27925;41.874;12.526;2023-07-09T05:13:58;10.85;;;6.57;;
40537;SDS011;27925;41.874;12.526;2023-07-09T05:16:24;11.52;;;6.35;;
40537;SDS011;27925;41.874;12.526;2023-07-09T05:18:49;11.30;;;6.35;;
40537;SDS011;27925;41.874;12.526;2023-07-09T05:21:15;9.48;;;6.63;;
40537;SDS011;27925;41.874;12.526;2023-07-09T05:23:41;12.57;;;6.57;;
40537;SDS011;27925;41.874;12.526;2023-07-09T05:26:07;13.45;;;6.40;;
40537;SDS011;27925;41.874;12.526;2023-07-09T05:28:34;12.15;;;6.55;;
40537;SDS011;27925;41.874;12.526;2023-07-09T05:30:59;12.23;;;6.20;;
40537;SDS011;27925;41.874;12.526;2023-07-09T05:33:25;11.25;;;6.18;;
40537;SDS011;27925;41.874;12.526;2023-07-09T05:35:51;11.85;;;6.43;;
40537;SDS011;27925;41.874;12.526;2023-07-09T05:38:17;11.25;;;6.32;;
40537;SDS011;27925;41.874;12.526;2023-07-09T05:40:43;13.75;;;6.32;;
40537;SDS011;27925;41.874;12.526;2023-07-09T05:43:09;10.25;;;6.20;;
40537;SDS011;27925;41.874;12.526;2023-07-09T05:45:38;9.52;;;5.97;;
40537;SDS011;27925;41.874;12.526;2023-07-09T05:48:04;9.60;;;6.45;;
40537;SDS011;27925;41.874;12.526;2023-07-09T05:50:32;9.90;;;6.20;;
40537;SDS011;27925;41.874;12.526;2023-07-09T05:52:59;13.23;;;6.30;;
40537;SDS011;27925;41.874;12.526;2023-07-09T05:55:24;13.18;;;7.07;;
40537;SDS011;27925;41.874;12.526;2023-07-09T05:57:51;11.85;;;6.55;;
40537;SDS011;27925;41.874;12.526;2023-07-09T06:00:18;16.13;;;6.45;;
40537;SDS011;27925;41.874;12.526;2023-07-09T06:02:44;15.05;;;6.43;;
40537;SDS011;27925;41.874;12.526;2023-07-09T06:05:09;10.65;;;6.70;;
40537;SDS011;27925;41.874;12.526;2023-07-09T06:07:36;12.48;;;6.32;;
40537;SDS011;27925;41.874;12.526;2023-07-09T06:10:03;10.98;;;6.07;;
40537;SDS011;27925;41.874;12.526;2023-07-09T06:12:33;11.57;;;6.22;;
40537;SDS011;27925;41.874;12.526;2023-07-09T06:14:59;12.48;;;5.93;;
40537;SDS011;27925;41.874;12.526;2023-07-09T06:17:24;11.68;;;6.47;;
40537;SDS011;27925;41.874;12.526;2023-07-09T06:19:50;11.30;;;6.18;;
40537;SDS011;27925;41.874;12.526;2023-07-09T06:22:16;10.70;;;6.50;;
40537;SDS011;27925;41.874;12.526;2023-07-09T06:24:42;10.25;;;7.05;;
40537;SDS011;27925;41.874;12.526;2023-07-09T06:27:08;10.13;;;5.95;;
40537;SDS011;27925;41.874;12.526;2023-07-09T06:29:37;11.88;;;5.90;;
40537;SDS011;27925;41.874;12.526;2023-07-09T06:32:03;11.65;;;6.10;;
40537;SDS011;27925;41.874;12.526;2023-07-09T06:34:29;13.85;;;6.40;;
40537;SDS011;27925;41.874;12.526;2023-07-09T06:36:55;11.18;;;5.90;;
40537;SDS011;27925;41.874;12.526;2023-07-09T06:39:22;8.63;;;5.82;;
40537;SDS011;27925;41.874;12.526;2023-07-09T06:41:48;10.27;;;6.03;;
40537;SDS011;27925;41.874;12.526;2023-07-09T06:44:14;11.02;;;7.03;;
40537;SDS011;27925;41.874;12.526;2023-07-09T06:46:39;12.48;;;8.00;;
40537;SDS011;27925;41.874;12.526;2023-07-09T06:49:05;14.50;;;6.97;;
40537;SDS011;27925;41.874;12.526;2023-07-09T06:51:31;12.02;;;6.43;;
40537;SDS011;27925;41.874;12.526;2023-07-09T06:53:57;11.73;;;6.30;;
40537;SDS011;27925;41.874;12.526;2023-07-09T06:56:23;8.73;;;6.03;;
40537;SDS011;27925;41.874;12.526;2023-07-09T06:58:49;10.73;;;6.20;;
40537;SDS011;27925;41.874;12.526;2023-07-09T07:01:15;12.80;;;6.78;;
40537;SDS011;27925;41.874;12.526;2023-07-09T07:03:40;14.35;;;6.45;;
40537;SDS011;27925;41.874;12.526;2023-07-09T07:06:06;10.18;;;6.70;;
40537;SDS011;27925;41.874;12.526;2023-07-09T07:08:32;17.42;;;6.97;;
40537;SDS011;27925;41.874;12.526;2023-07-09T07:11:02;17.33;;;6.88;;
40537;SDS011;27925;41.874;12.526;2023-07-09T07:13:39;13.05;;;7.57;;
40537;SDS011;27925;41.874;12.526;2023-07-09T07:16:07;15.23;;;8.88;;
40537;SDS011;27925;41.874;12.526;2023-07-09T07:18:34;10.85;;;7.63;;
40537;SDS011;27925;41.874;12.526;2023-07-09T07:21:00;12.70;;;7.47;;
40537;SDS011;27925;41.874;12.526;2023-07-09T07:23:26;11.93;;;6.85;;
40537;SDS011;27925;41.874;12.526;2023-07-09T07:25:52;11.48;;;6.45;;
40537;SDS011;27925;41.874;12.526;2023-07-09T07:28:19;11.75;;;6.68;;
40537;SDS011;27925;41.874;12.526;2023-07-09T07:30:45;11.57;;;6.25;;
40537;SDS011;27925;41.874;12.526;2023-07-09T07:33:12;10.80;;;6.45;;
40537;SDS011;27925;41.874;12.526;2023-07-09T07:35:40;10.40;;;6.43;;
40537;SDS011;27925;41.874;12.526;2023-07-09T07:38:05;12.40;;;6.55;;
40537;SDS011;27925;41.874;12.526;2023-07-09T07:40:32;12.90;;;8.23;;
40537;SDS011;27925;41.874;12.526;2023-07-09T07:42:57;12.85;;;7.03;;
40537;SDS011;27925;41.874;12.526;2023-07-09T07:45:23;11.63;;;6.65;;
40537;SDS011;27925;41.874;12.526;2023-07-09T07:47:49;9.05;;;5.45;;
40537;SDS011;27925;41.874;12.526;2023-07-09T07:50:17;10.10;;;6.40;;
40537;SDS011;27925;41.874;12.526;2023-07-09T07:52:43;11.10;;;6.38;;
40537;SDS011;27925;41.874;12.526;2023-07-09T07:55:08;9.88;;;5.82;;
40537;SDS011;27925;41.874;12.526;2023-07-09T07:57:34;11.18;;;6.47;;
40537;SDS011;27925;41.874;12.526;2023-07-09T08:00:00;12.85;;;7.05;;
40537;SDS011;27925;41.874;12.526;2023-07-09T08:02:26;11.80;;;6.82;;
40537;SDS011;27925;41.874;12.526;2023-07-09T08:04:51;10.65;;;6.70;;
40537;SDS011;27925;41.874;12.526;2023-07-09T08:07:18;12.70;;;7.20;;
40537;SDS011;27925;41.874;12.526;2023-07-09T08:09:45;14.57;;;6.50;;
40537;SDS011;27925;41.874;12.526;2023-07-09T08:12:11;10.73;;;6.30;;
40537;SDS011;27925;41.874;12.526;2023-07-09T08:14:39;15.20;;;6.68;;
40537;SDS011;27925;41.874;12.526;2023-07-09T08:17:06;12.00;;;6.75;;
40537;SDS011;27925;41.874;12.526;2023-07-09T08:19:32;14.07;;;7.15;;
40537;SDS011;27925;41.874;12.526;2023-07-09T08:22:08;9.93;;;6.68;;
40537;SDS011;27925;41.874;12.526;2023-07-09T08:24:34;8.57;;;5.88;;
40537;SDS011;27925;41.874;12.526;2023-07-09T08:27:00;10.73;;;6.10;;
40537;SDS011;27925;41.874;12.526;2023-07-09T08:29:26;14.90;;;6.75;;
40537;SDS011;27925;41.874;12.526;2023-07-09T08:31:51;9.75;;;6.40;;
40537;SDS011;27925;41.874;12.526;2023-07-09T08:34:17;10.80;;;6.53;;
40537;SDS011;27925;41.874;12.526;2023-07-09T08:36:43;10.00;;;5.72;;
40537;SDS011;27925;41.874;12.526;2023-07-09T08:39:09;12.15;;;6.38;;
40537;SDS011;27925;41.874;12.526;2023-07-09T08:44:33;12.65;;;6.30;;
40537;SDS011;27925;41.874;12.526;2023-07-09T08:49:57;12.52;;;6.72;;
40537;SDS011;27925;41.874;12.526;2023-07-09T08:52:44;11.38;;;6.95;;
40537;SDS011;27925;41.874;12.526;2023-07-09T08:57:44;10.82;;;6.43;;
40537;SDS011;27925;41.874;12.526;2023-07-09T09:00:16;11.90;;;6.45;;
40537;SDS011;27925;41.874;12.526;2023-07-09T09:02:52;11.65;;;6.53;;
40537;SDS011;27925;41.874;12.526;2023-07-09T09:05:23;10.82;;;6.35;;
40537;SDS011;27925;41.874;12.526;2023-07-09T09:07:51;15.43;;;6.50;;
40537;SDS011;27925;41.874;12.526;2023-07-09T09:10:29;9.45;;;6.53;;
40537;SDS011;27925;41.874;12.526;2023-07-09T09:15:38;11.07;;;6.32;;
40537;SDS011;27925;41.874;12.526;2023-07-09T09:18:11;13.63;;;6.72;;
40537;SDS011;27925;41.874;12.526;2023-07-09T09:20:43;10.07;;;6.32;;
40537;SDS011;27925;41.874;12.526;2023-07-09T09:23:12;12.93;;;6.00;;
40537;SDS011;27925;41.874;12.526;2023-07-09T09:25:41;11.18;;;6.47;;
40537;SDS011;27925;41.874;12.526;2023-07-09T09:28:15;10.85;;;6.30;;
40537;SDS011;27925;41.874;12.526;2023-07-09T09:30:40;11.88;;;6.95;;
40537;SDS011;27925;41.874;12.526;2023-07-09T09:33:07;12.80;;;6.13;;
40537;SDS011;27925;41.874;12.526;2023-07-09T09:35:35;8.57;;;5.60;;
40537;SDS011;27925;41.874;12.526;2023-07-09T09:38:09;9.18;;;5.95;;
40537;SDS011;27925;41.874;12.526;2023-07-09T09:40:41;9.68;;;6.45;;
40537;SDS011;27925;41.874;12.526;2023-07-09T09:43:11;10.63;;;6.88;;
40537;SDS011;27925;41.874;12.526;2023-07-09T09:45:45;10.73;;;7.03;;
40537;SDS011;27925;41.874;12.526;2023-07-09T09:48:15;9.98;;;6.35;;
40537;SDS011;27925;41.874;12.526;2023-07-09T09:50:46;11.65;;;6.35;;
40537;SDS011;27925;41.874;12.526;2023-07-09T09:53:18;10.02;;;6.28;;
40537;SDS011;27925;41.874;12.526;2023-07-09T09:55:46;14.10;;;6.40;;
40537;SDS011;27925;41.874;12.526;2023-07-09T09:58:14;13.10;;;6.43;;
40537;SDS011;27925;41.874;12.526;2023-07-09T10:00:46;13.23;;;6.22;;
40537;SDS011;27925;41.874;12.526;2023-07-09T10:03:16;11.60;;;5.93;;
40537;SDS011;27925;41.874;12.526;2023-07-09T10:05:43;10.32;;;6.18;;
40537;SDS011;27925;41.874;12.526;2023-07-09T10:08:18;11.98;;;7.10;;
40537;SDS011;27925;41.874;12.526;2023-07-09T10:11:02;11.07;;;6.63;;
40537;SDS011;27925;41.874;12.526;2023-07-09T10:13:49;12.48;;;6.45;;
40537;SDS011;27925;41.874;12.526;2023-07-09T10:21:40;14.15;;;6.20;;
40537;SDS011;27925;41.874;12.526;2023-07-09T10:24:23;11.30;;;6.43;;
40537;SDS011;27925;41.874;12.526;2023-07-09T10:27:27;9.77;;;5.80;;
40537;SDS011;27925;41.874;12.526;2023-07-09T10:33:16;12.50;;;5.88;;
40537;SDS011;27925;41.874;12.526;2023-07-09T10:36:02;12.50;;;6.22;;
40537;SDS011;27925;41.874;12.526;2023-07-09T10:38:56;10.33;;;6.37;;
40537;SDS011;27925;41.874;12.526;2023-07-09T10:41:50;9.75;;;5.40;;
40537;SDS011;27925;41.874;12.526;2023-07-09T10:44:20;12.60;;;5.40;;
40537;SDS011;27925;41.874;12.526;2023-07-09T10:46:52;10.20;;;5.30;;
40537;SDS011;27925;41.874;12.526;2023-07-09T10:49:22;8.43;;;5.38;;
40537;SDS011;27925;41.874;12.526;2023-07-09T10:51:55;10.18;;;5.78;;
40537;SDS011;27925;41.874;12.526;2023-07-09T10:57:17;12.32;;;5.63;;
40537;SDS011;27925;41.874;12.526;2023-07-09T10:59:50;14.50;;;5.65;;
40537;SDS011;27925;41.874;12.526;2023-07-09T11:02:26;12.60;;;5.45;;
40537;SDS011;27925;41.874;12.526;2023-07-09T11:07:26;10.23;;;4.95;;
40537;SDS011;27925;41.874;12.526;2023-07-09T11:09:57;14.50;;;5.97;;
40537;SDS011;27925;41.874;12.526;2023-07-09T11:12:36;12.40;;;5.97;;
40537;SDS011;27925;41.874;12.526;2023-07-09T11:17:40;12.60;;;6.03;;
40537;SDS011;27925;41.874;12.526;2023-07-09T11:20:17;9.80;;;5.67;;
40537;SDS011;27925;41.874;12.526;2023-07-09T11:25:27;8.60;;;5.63;;
40537;SDS011;27925;41.874;12.526;2023-07-09T11:28:06;9.27;;;5.05;;
40537;SDS011;27925;41.874;12.526;2023-07-09T11:30:32;10.85;;;5.28;;
40537;SDS011;27925;41.874;12.526;2023-07-09T11:32:59;9.68;;;6.15;;
40537;SDS011;27925;41.874;12.526;2023-07-09T11:35:30;10.70;;;5.60;;
40537;SDS011;27925;41.874;12.526;2023-07-09T11:38:23;11.52;;;5.70;;
40537;SDS011;27925;41.874;12.526;2023-07-09T11:40:50;11.23;;;6.07;;
40537;SDS011;27925;41.874;12.526;2023-07-09T11:43:46;8.93;;;5.20;;
40537;SDS011;27925;41.874;12.526;2023-07-09T11:46:15;10.85;;;5.40;;
40537;SDS011;27925;41.874;12.526;2023-07-09T11:48:45;8.93;;;5.25;;
40537;SDS011;27925;41.874;12.526;2023-07-09T11:51:18;8.13;;;5.15;;
40537;SDS011;27925;41.874;12.526;2023-07-09T11:53:49;11.65;;;5.63;;
40537;SDS011;27925;41.874;12.526;2023-07-09T11:56:18;11.07;;;5.40;;
40537;SDS011;27925;41.874;12.526;2023-07-09T11:58:54;12.43;;;5.68;;
40537;SDS011;27925;41.874;12.526;2023-07-09T12:01:26;11.73;;;5.35;;
40537;SDS011;27925;41.874;12.526;2023-07-09T12:03:57;10.10;;;5.63;;
40537;SDS011;27925;41.874;12.526;2023-07-09T12:06:27;10.27;;;5.10;;
40537;SDS011;27925;41.874;12.526;2023-07-09T12:08:54;13.25;;;5.55;;
40537;SDS011;27925;41.874;12.526;2023-07-09T12:13:51;9.82;;;5.78;;
40537;SDS011;27925;41.874;12.526;2023-07-09T12:16:22;8.13;;;5.25;;
40537;SDS011;27925;41.874;12.526;2023-07-09T12:18:50;7.53;;;5.28;;
40537;SDS011;27925;41.874;12.526;2023-07-09T12:21:16;11.05;;;5.03;;
40537;SDS011;27925;41.874;12.526;2023-07-09T12:23:42;11.05;;;5.72;;
40537;SDS011;27925;41.874;12.526;2023-07-09T12:26:15;8.70;;;5.50;;
40537;SDS011;27925;41.874;12.526;2023-07-09T12:28:42;11.13;;;5.10;;
40537;SDS011;27925;41.874;12.526;2023-07-09T12:31:14;11.80;;;4.78;;
40537;SDS011;27925;41.874;12.526;2023-07-09T12:33:50;12.35;;;5.68;;
40537;SDS011;27925;41.874;12.526;2023-07-09T12:36:18;15.40;;;5.60;;
40537;SDS011;27925;41.874;12.526;2023-07-09T12:38:46;11.85;;;5.55;;
40537;SDS011;27925;41.874;12.526;2023-07-09T12:41:22;10.77;;;5.75;;
40537;SDS011;27925;41.874;12.526;2023-07-09T12:44:10;10.32;;;5.18;;
40537;SDS011;27925;41.874;12.526;2023-07-09T12:46:44;9.27;;;5.40;;
40537;SDS011;27925;41.874;12.526;2023-07-09T12:49:30;9.25;;;5.38;;
40537;SDS011;27925;41.874;12.526;2023-07-09T12:52:02;10.68;;;5.57;;
40537;SDS011;27925;41.874;12.526;2023-07-09T12:54:28;11.63;;;5.38;;
40537;SDS011;27925;41.874;12.526;2023-07-09T12:56:55;14.63;;;5.47;;
40537;SDS011;27925;41.874;12.526;2023-07-09T12:59:24;14.98;;;5.88;;
40537;SDS011;27925;41.874;12.526;2023-07-09T13:02:14;9.82;;;5.40;;
40537;SDS011;27925;41.874;12.526;2023-07-09T13:04:43;13.05;;;5.60;;
40537;SDS011;27925;41.874;12.526;2023-07-09T13:09:51;11.32;;;5.60;;
40537;SDS011;27925;41.874;12.526;2023-07-09T13:12:19;10.70;;;5.43;;
40537;SDS011;27925;41.874;12.526;2023-07-09T13:14:53;10.07;;;5.07;;
40537;SDS011;27925;41.874;12.526;2023-07-09T13:17:19;9.43;;;5.38;;
40537;SDS011;27925;41.874;12.526;2023-07-09T13:19:45;12.63;;;5.05;;
40537;SDS011;27925;41.874;12.526;2023-07-09T13:22:15;9.63;;;5.13;;
40537;SDS011;27925;41.874;12.526;2023-07-09T13:24:42;11.95;;;5.53;;
40537;SDS011;27925;41.874;12.526;2023-07-09T13:27:08;10.32;;;5.03;;
40537;SDS011;27925;41.874;12.526;2023-07-09T13:29:39;10.75;;;5.18;;
40537;SDS011;27925;41.874;12.526;2023-07-09T13:32:11;9.55;;;5.00;;
40537;SDS011;27925;41.874;12.526;2023-07-09T13:34:38;14.50;;;5.60;;
40537;SDS011;27925;41.874;12.526;2023-07-09T13:37:05;7.80;;;4.93;;
40537;SDS011;27925;41.874;12.526;2023-07-09T13:39:37;11.97;;;5.63;;
40537;SDS011;27925;41.874;12.526;2023-07-09T13:42:02;10.75;;;5.35;;
40537;SDS011;27925;41.874;12.526;2023-07-09T13:44:32;9.77;;;5.10;;
40537;SDS011;27925;41.874;12.526;2023-07-09T13:46:57;11.35;;;4.95;;
40537;SDS011;27925;41.874;12.526;2023-07-09T13:49:25;15.90;;;5.43;;
40537;SDS011;27925;41.874;12.526;2023-07-09T13:51:53;9.88;;;5.10;;
40537;SDS011;27925;41.874;12.526;2023-07-09T13:54:26;11.68;;;5.55;;
40537;SDS011;27925;41.874;12.526;2023-07-09T13:57:00;8.60;;;4.35;;
40537;SDS011;27925;41.874;12.526;2023-07-09T13:59:27;10.57;;;4.60;;
40537;SDS011;27925;41.874;12.526;2023-07-09T14:01:54;10.00;;;5.18;;
40537;SDS011;27925;41.874;12.526;2023-07-09T14:04:21;14.05;;;5.13;;
40537;SDS011;27925;41.874;12.526;2023-07-09T14:06:48;10.43;;;4.70;;
40537;SDS011;27925;41.874;12.526;2023-07-09T14:09:14;11.40;;;5.07;;
40537;SDS011;27925;41.874;12.526;2023-07-09T14:11:44;9.88;;;4.72;;
40537;SDS011;27925;41.874;12.526;2023-07-09T14:14:23;7.13;;;4.20;;
40537;SDS011;27925;41.874;12.526;2023-07-09T14:16:55;11.93;;;5.13;;
40537;SDS011;27925;41.874;12.526;2023-07-09T14:19:23;12.02;;;4.40;;
40537;SDS011;27925;41.874;12.526;2023-07-09T14:21:49;10.85;;;4.70;;
40537;SDS011;27925;41.874;12.526;2023-07-09T14:24:21;9.30;;;4.75;;
40537;SDS011;27925;41.874;12.526;2023-07-09T14:26:49;10.23;;;4.95;;
40537;SDS011;27925;41.874;12.526;2023-07-09T14:29:15;9.07;;;4.90;;
40537;SDS011;27925;41.874;12.526;2023-07-09T14:31:41;9.35;;;4.82;;
40537;SDS011;27925;41.874;12.526;2023-07-09T14:34:29;8.00;;;4.50;;
40537;SDS011;27925;41.874;12.526;2023-07-09T14:36:56;8.52;;;4.47;;
40537;SDS011;27925;41.874;12.526;2023-07-09T14:39:23;8.35;;;4.50;;
40537;SDS011;27925;41.874;12.526;2023-07-09T14:41:50;7.22;;;4.50;;
40537;SDS011;27925;41.874;12.526;2023-07-09T14:46:55;9.15;;;4.65;;
40537;SDS011;27925;41.874;12.526;2023-07-09T14:49:25;8.50;;;4.20;;
40537;SDS011;27925;41.874;12.526;2023-07-09T14:51:52;7.35;;;4.30;;
40537;SDS011;27925;41.874;12.526;2023-07-09T14:54:20;9.48;;;4.30;;
40537;SDS011;27925;41.874;12.526;2023-07-09T14:56:46;7.60;;;5.00;;
40537;SDS011;27925;41.874;12.526;2023-07-09T14:59:12;8.35;;;4.65;;
40537;SDS011;27925;41.874;12.526;2023-07-09T15:01:38;14.50;;;4.82;;
40537;SDS011;27925;41.874;12.526;2023-07-09T15:04:22;8.18;;;5.20;;
40537;SDS011;27925;41.874;12.526;2023-07-09T15:06:51;10.18;;;5.07;;
40537;SDS011;27925;41.874;12.526;2023-07-09T15:09:19;8.95;;;4.40;;
40537;SDS011;27925;41.874;12.526;2023-07-09T15:11:48;9.73;;;4.53;;
40537;SDS011;27925;41.874;12.526;2023-07-09T15:14:15;10.35;;;4.55;;
40537;SDS011;27925;41.874;12.526;2023-07-09T15:16:42;8.60;;;4.28;;
40537;SDS011;27925;41.874;12.526;2023-07-09T15:19:17;10.48;;;5.10;;